createdAt,value
2018-10-19T00:01:50.950Z,11.39
2018-10-19T00:02:50.959Z,11.46
2018-10-19T00:04:43.876Z,11.43
2018-10-19T00:05:43.881Z,11.35
2018-10-19T00:07:36.794Z,11.36
2018-10-19T00:08:36.822Z,11.29
2018-10-19T00:10:29.811Z,11.24
2018-10-19T00:11:29.728Z,11.28
2018-10-19T00:13:22.636Z,11.32
2018-10-19T00:14:22.643Z,11.22
2018-10-19T00:16:15.541Z,11.29
2018-10-19T00:17:15.658Z,11.27
2018-10-19T00:19:08.469Z,11.24
2018-10-19T00:20:08.476Z,11.33
2018-10-19T00:22:01.371Z,11.24
2018-10-19T00:23:01.401Z,11.24
2018-10-19T00:24:54.297Z,11.27
2018-10-19T00:25:54.300Z,11.24
2018-10-19T00:27:47.205Z,11.21
2018-10-19T00:28:47.221Z,11.19
2018-10-19T00:30:40.131Z,11.22
2018-10-19T00:31:40.135Z,11.18
2018-10-19T00:33:33.038Z,11.11
2018-10-19T00:34:33.055Z,11.17
2018-10-19T00:36:25.976Z,11.15
2018-10-19T00:37:26.044Z,11.17
2018-10-19T00:39:18.894Z,11.14
2018-10-19T00:40:18.905Z,11.10
2018-10-19T00:42:11.985Z,11.02
2018-10-19T00:43:12.002Z,11.07
2018-10-19T00:45:04.924Z,11.04
2018-10-19T00:46:04.924Z,10.97
2018-10-19T00:47:57.813Z,10.99
2018-10-19T00:48:57.833Z,11.03
2018-10-19T00:50:50.742Z,10.99
2018-10-19T00:51:50.754Z,10.97
2018-10-19T00:53:43.649Z,10.97
2018-10-19T00:54:43.665Z,10.94
2018-10-19T00:56:36.575Z,10.99
2018-10-19T00:57:36.580Z,10.97
2018-10-19T00:59:29.488Z,11.00
2018-10-19T01:00:29.502Z,10.92
2018-10-19T01:02:22.412Z,10.91
2018-10-19T01:03:22.419Z,10.96
2018-10-19T01:05:15.433Z,10.84
2018-10-19T01:06:15.340Z,10.81
2018-10-19T01:08:08.240Z,10.73
2018-10-19T01:09:08.311Z,10.76
2018-10-19T01:11:01.182Z,10.64
2018-10-19T01:12:01.171Z,10.63
2018-10-19T01:13:54.090Z,10.63
2018-10-19T01:14:54.118Z,10.63
2018-10-19T01:16:47.015Z,10.66
2018-10-19T01:17:47.021Z,10.63
2018-10-19T01:19:39.922Z,10.66
2018-10-19T01:20:39.939Z,10.63
2018-10-19T01:22:32.852Z,10.61
2018-10-19T01:23:32.861Z,10.59
2018-10-19T01:25:25.760Z,10.66
2018-10-19T01:26:25.776Z,10.61
2018-10-19T01:28:18.681Z,10.59
2018-10-19T01:29:18.689Z,10.63
2018-10-19T01:31:11.599Z,10.68
2018-10-19T01:32:11.602Z,10.64
2018-10-19T01:34:04.531Z,10.66
2018-10-19T01:35:04.610Z,10.61
2018-10-19T01:36:57.429Z,10.59
2018-10-19T01:37:57.435Z,10.55
2018-10-19T01:39:50.339Z,10.59
2018-10-19T01:40:50.356Z,10.63
2018-10-19T01:42:43.263Z,10.52
2018-10-19T01:43:43.273Z,10.55
2018-10-19T01:45:36.171Z,10.55
2018-10-19T01:46:36.184Z,10.48
2018-10-19T01:48:29.099Z,10.48
2018-10-19T01:49:29.107Z,10.42
2018-10-19T01:51:22.006Z,10.41
2018-10-19T01:52:22.025Z,10.41
2018-10-19T01:54:14.930Z,10.34
2018-10-19T01:55:14.936Z,10.29
2018-10-19T01:57:07.869Z,10.26
2018-10-19T01:58:07.852Z,10.23
2018-10-19T02:00:00.817Z,10.25
2018-10-19T02:01:00.766Z,10.22
2018-10-19T02:02:53.684Z,10.22
2018-10-19T02:03:53.687Z,10.15
2018-10-19T02:05:46.585Z,10.22
2018-10-19T02:06:46.599Z,10.26
2018-10-19T02:08:39.508Z,10.25
2018-10-19T02:09:39.513Z,10.23
2018-10-19T02:11:32.442Z,10.23
2018-10-19T02:12:32.431Z,10.27
2018-10-19T02:14:25.335Z,10.27
2018-10-19T02:15:25.343Z,10.32
2018-10-19T02:17:18.249Z,10.18
2018-10-19T02:18:18.284Z,10.29
2018-10-19T02:20:11.171Z,10.23
2018-10-19T02:21:11.192Z,10.23
2018-10-19T02:23:04.136Z,10.22
2018-10-19T02:24:04.097Z,10.20
2018-10-19T02:25:56.992Z,10.07
2018-10-19T02:26:57.042Z,10.05
2018-10-19T02:28:49.922Z,10.04
2018-10-19T02:29:49.931Z,10.05
2018-10-19T02:31:42.829Z,9.96
2018-10-19T02:32:42.838Z,9.94
2018-10-19T02:34:35.755Z,9.91
2018-10-19T02:35:35.755Z,9.94
2018-10-19T02:37:28.652Z,9.86
2018-10-19T02:38:28.665Z,9.89
2018-10-19T02:40:21.583Z,9.94
2018-10-19T02:41:21.583Z,9.90
2018-10-19T02:43:14.484Z,9.87
2018-10-19T02:44:14.498Z,9.99
2018-10-19T02:46:07.405Z,9.99
2018-10-19T02:47:07.466Z,10.04
2018-10-19T02:49:00.339Z,9.96
2018-10-19T02:50:00.330Z,9.94
2018-10-19T02:51:53.725Z,9.96
2018-10-19T02:52:53.793Z,9.94
2018-10-19T02:54:46.643Z,9.94
2018-10-19T02:55:46.648Z,10.01
2018-10-19T02:57:39.555Z,9.96
2018-10-19T02:58:39.562Z,10.04
2018-10-19T03:00:32.482Z,10.05
2018-10-19T03:01:32.479Z,9.90
2018-10-19T03:03:25.385Z,9.97
2018-10-19T03:04:25.394Z,9.99
2018-10-19T03:06:18.307Z,9.91
2018-10-19T03:07:18.307Z,9.96
2018-10-19T03:09:11.320Z,9.93
2018-10-19T03:10:11.226Z,9.94
2018-10-19T03:12:04.129Z,9.93
2018-10-19T03:13:04.141Z,9.94
2018-10-19T03:14:57.096Z,9.97
2018-10-19T03:15:57.056Z,9.94
2018-10-19T03:17:49.952Z,9.96
2018-10-19T03:18:49.965Z,9.91
2018-10-19T03:20:42.887Z,9.90
2018-10-19T03:21:42.895Z,9.93
2018-10-19T03:23:35.794Z,9.91
2018-10-19T03:24:35.810Z,9.94
2018-10-19T03:26:28.752Z,9.94
2018-10-19T03:27:28.727Z,9.89
2018-10-19T03:29:22.264Z,9.94
2018-10-19T03:30:22.147Z,9.84
2018-10-19T03:32:15.050Z,9.79
2018-10-19T03:33:15.092Z,9.84
2018-10-19T03:35:08.061Z,9.79
2018-10-19T03:36:07.968Z,9.81
2018-10-19T03:38:00.874Z,9.83
2018-10-19T03:39:00.923Z,9.83
2018-10-19T03:40:53.815Z,9.91
2018-10-19T03:41:53.799Z,9.90
2018-10-19T03:43:46.693Z,9.89
2018-10-19T03:44:46.706Z,9.91
2018-10-19T03:46:39.612Z,9.99
2018-10-19T03:47:39.623Z,9.94
2018-10-19T03:49:32.519Z,9.96
2018-10-19T03:50:32.531Z,9.90
2018-10-19T03:52:25.470Z,9.91
2018-10-19T03:53:25.447Z,9.97
2018-10-19T03:55:18.836Z,10.04
2018-10-19T03:56:18.853Z,10.01
2018-10-19T03:58:11.768Z,9.86
2018-10-19T03:59:11.826Z,9.91
2018-10-19T04:01:04.676Z,9.93
2018-10-19T04:02:04.687Z,9.91
2018-10-19T04:03:57.599Z,9.94
2018-10-19T04:04:57.609Z,9.90
2018-10-19T04:06:50.508Z,9.86
2018-10-19T04:07:50.517Z,9.84
2018-10-19T04:09:43.412Z,9.89
2018-10-19T04:10:43.432Z,9.93
2018-10-19T04:12:36.336Z,9.91
2018-10-19T04:13:36.339Z,9.91
2018-10-19T04:15:29.307Z,9.96
2018-10-19T04:16:29.256Z,10.02
2018-10-19T04:18:22.165Z,10.02
2018-10-19T04:19:22.172Z,9.93
2018-10-19T04:21:15.202Z,10.02
2018-10-19T04:22:15.094Z,10.05
2018-10-19T04:24:08.034Z,9.91
2018-10-19T04:25:08.007Z,9.99
2018-10-19T04:27:00.921Z,9.94
2018-10-19T04:28:00.921Z,9.96
2018-10-19T04:29:53.871Z,10.04
2018-10-19T04:30:53.889Z,9.99
2018-10-19T04:32:46.751Z,10.01
2018-10-19T04:33:46.747Z,9.97
2018-10-19T04:35:39.648Z,9.91
2018-10-19T04:36:39.674Z,9.86
2018-10-19T04:38:32.575Z,9.90
2018-10-19T04:39:32.581Z,9.90
2018-10-19T04:41:25.507Z,9.84
2018-10-19T04:42:25.547Z,9.76
2018-10-19T04:44:18.407Z,9.89
2018-10-19T04:45:18.497Z,9.84
2018-10-19T04:47:11.373Z,9.84
2018-10-19T04:48:11.330Z,9.78
2018-10-19T04:50:04.240Z,9.86
2018-10-19T04:51:04.299Z,9.74
2018-10-19T04:52:57.174Z,9.81
2018-10-19T04:53:57.157Z,9.87
2018-10-19T04:55:50.069Z,9.78
2018-10-19T04:56:50.082Z,9.74
2018-10-19T04:58:43.019Z,9.72
2018-10-19T04:59:42.989Z,9.65
2018-10-19T05:01:35.894Z,9.74
2018-10-19T05:02:35.928Z,9.64
2018-10-19T05:04:28.883Z,9.66
2018-10-19T05:05:29.019Z,9.65
2018-10-19T05:07:21.724Z,9.58
2018-10-19T05:08:21.841Z,9.65
2018-10-19T05:10:14.655Z,9.50
2018-10-19T05:11:14.737Z,9.60
2018-10-19T05:13:07.788Z,9.51
2018-10-19T05:14:07.800Z,9.51
2018-10-19T05:16:00.750Z,9.51
2018-10-19T05:17:00.766Z,9.48
2018-10-19T05:18:53.613Z,9.51
2018-10-19T05:19:53.615Z,9.50
2018-10-19T05:21:46.505Z,9.46
2018-10-19T05:22:46.516Z,9.57
2018-10-19T05:24:39.426Z,9.51
2018-10-19T05:25:39.428Z,9.54
2018-10-19T05:27:32.326Z,9.53
2018-10-19T05:28:32.341Z,9.50
2018-10-19T05:30:25.253Z,9.43
2018-10-19T05:31:25.260Z,9.51
2018-10-19T05:33:18.157Z,9.43
2018-10-19T05:34:18.175Z,9.50
2018-10-19T05:36:11.077Z,9.48
2018-10-19T05:37:11.088Z,9.51
2018-10-19T05:39:04.018Z,9.57
2018-10-19T05:40:04.023Z,9.46
2018-10-19T05:41:57.081Z,9.54
2018-10-19T05:42:56.931Z,9.46
2018-10-19T05:44:49.837Z,9.50
2018-10-19T05:45:49.844Z,9.46
2018-10-19T05:47:42.751Z,9.47
2018-10-19T05:48:42.767Z,9.39
2018-10-19T05:50:35.675Z,9.48
2018-10-19T05:51:35.681Z,9.48
2018-10-19T05:53:28.580Z,9.56
2018-10-19T05:54:28.593Z,9.43
2018-10-19T05:56:21.509Z,9.46
2018-10-19T05:57:21.510Z,9.48
2018-10-19T05:59:14.463Z,9.48
2018-10-19T06:00:14.419Z,9.57
2018-10-19T06:02:07.365Z,9.56
2018-10-19T06:03:07.334Z,9.53
2018-10-19T06:05:00.687Z,9.48
2018-10-19T06:06:00.246Z,9.50
2018-10-19T06:07:53.157Z,9.56
2018-10-19T06:08:53.160Z,9.53
2018-10-19T06:10:46.073Z,9.50
2018-10-19T06:11:46.078Z,9.51
2018-10-19T06:13:39.003Z,9.51
2018-10-19T06:14:38.990Z,9.68
2018-10-19T06:16:31.890Z,9.68
2018-10-19T06:17:31.899Z,9.65
2018-10-19T06:19:24.800Z,9.61
2018-10-19T06:20:24.815Z,9.57
2018-10-19T06:22:17.747Z,9.58
2018-10-19T06:23:17.802Z,9.58
2018-10-19T06:25:10.635Z,9.65
2018-10-19T06:26:10.761Z,9.60
2018-10-19T06:28:03.550Z,9.68
2018-10-19T06:29:03.610Z,9.61
2018-10-19T06:30:56.456Z,9.66
2018-10-19T06:31:56.529Z,9.51
2018-10-19T06:33:49.419Z,9.65
2018-10-19T06:34:49.384Z,9.65
2018-10-19T06:36:42.312Z,9.69
2018-10-19T06:37:42.297Z,9.74
2018-10-19T06:39:35.202Z,9.84
2018-10-19T06:40:35.255Z,9.87
2018-10-19T06:42:28.121Z,9.93
2018-10-19T06:43:28.129Z,9.93
2018-10-19T06:45:21.030Z,9.96
2018-10-19T06:46:21.049Z,10.12
2018-10-19T06:48:13.954Z,10.14
2018-10-19T06:49:14.016Z,10.18
2018-10-19T06:51:06.877Z,10.26
2018-10-19T06:52:06.897Z,10.27
2018-10-19T06:53:59.806Z,10.29
2018-10-19T06:54:59.809Z,10.25
2018-10-19T06:56:52.713Z,10.30
2018-10-19T06:57:52.730Z,10.29
2018-10-19T06:59:45.635Z,10.29
2018-10-19T07:00:45.645Z,10.36
2018-10-19T07:02:38.577Z,10.44
2018-10-19T07:03:38.553Z,10.52
2018-10-19T07:05:31.462Z,10.56
2018-10-19T07:06:31.468Z,10.55
2018-10-19T07:08:24.441Z,10.55
2018-10-19T07:09:24.388Z,10.66
2018-10-19T07:11:17.281Z,10.68
2018-10-19T07:12:17.384Z,10.70
2018-10-19T07:14:10.281Z,10.76
2018-10-19T07:15:10.212Z,10.71
2018-10-19T07:17:03.134Z,10.79
2018-10-19T07:18:03.129Z,10.74
2018-10-19T07:19:56.077Z,10.86
2018-10-19T07:20:56.046Z,10.84
2018-10-19T07:22:49.004Z,10.81
2018-10-19T07:23:48.962Z,10.81
2018-10-19T07:25:41.864Z,10.73
2018-10-19T07:26:41.877Z,10.81
2018-10-19T07:28:34.786Z,10.81
2018-10-19T07:29:34.880Z,10.91
2018-10-19T07:31:27.707Z,10.96
2018-10-19T07:32:27.707Z,10.91
2018-10-19T07:34:20.636Z,11.14
2018-10-19T07:35:20.634Z,11.10
2018-10-19T07:37:13.535Z,11.17
2018-10-19T07:38:13.644Z,11.21
2018-10-19T07:40:06.463Z,11.39
2018-10-19T07:41:06.537Z,11.43
2018-10-19T07:42:59.381Z,11.47
2018-10-19T07:43:59.435Z,11.54
2018-10-19T07:45:52.296Z,11.60
2018-10-19T07:46:52.359Z,11.65
2018-10-19T07:48:45.224Z,11.73
2018-10-19T07:49:45.223Z,11.72
2018-10-19T07:51:38.134Z,11.90
2018-10-19T07:52:38.153Z,11.72
2018-10-19T07:54:31.126Z,11.73
2018-10-19T07:55:31.066Z,11.88
2018-10-19T07:57:23.966Z,11.88
2018-10-19T07:58:23.982Z,11.95
2018-10-19T08:00:16.921Z,11.91
2018-10-19T08:01:17.029Z,11.95
2018-10-19T08:03:09.827Z,11.95
2018-10-19T08:04:09.850Z,11.90
2018-10-19T08:06:02.993Z,11.85
2018-10-19T08:07:02.984Z,11.86
2018-10-19T08:08:55.945Z,11.88
2018-10-19T08:09:55.902Z,11.86
2018-10-19T08:11:49.037Z,11.98
2018-10-19T08:12:49.020Z,11.98
2018-10-19T08:14:41.923Z,12.01
2018-10-19T08:15:41.930Z,12.04
2018-10-19T08:17:34.848Z,12.07
2018-10-19T08:18:34.848Z,12.12
2018-10-19T08:20:27.788Z,12.13
2018-10-19T08:21:27.798Z,12.09
2018-10-19T08:23:20.713Z,12.19
2018-10-19T08:24:20.712Z,12.29
2018-10-19T08:26:13.677Z,12.13
2018-10-19T08:27:13.663Z,12.10
2018-10-19T08:29:06.606Z,12.24
2018-10-19T08:30:06.549Z,12.37
2018-10-19T08:31:59.505Z,12.32
2018-10-19T08:32:59.476Z,12.34
2018-10-19T08:34:52.424Z,12.39
2018-10-19T08:35:52.429Z,12.42
2018-10-19T08:37:45.336Z,12.59
2018-10-19T08:38:45.347Z,12.54
2018-10-19T08:40:38.290Z,12.67
2018-10-19T08:41:38.361Z,12.64
2018-10-19T08:43:31.172Z,12.56
2018-10-19T08:44:31.188Z,12.67
2018-10-19T08:46:24.390Z,12.60
2018-10-19T08:47:24.352Z,12.68
2018-10-19T08:49:17.378Z,12.78
2018-10-19T08:50:17.272Z,12.77
2018-10-19T08:52:10.414Z,12.77
2018-10-19T08:53:10.240Z,12.75
2018-10-19T08:55:03.117Z,12.77
2018-10-19T08:56:03.109Z,12.74
2018-10-19T08:57:56.165Z,12.83
2018-10-19T08:58:56.084Z,12.87
2018-10-19T09:00:48.981Z,13.08
2018-10-19T09:01:48.993Z,13.03
2018-10-19T09:03:41.948Z,12.95
2018-10-19T09:04:41.911Z,12.92
2018-10-19T09:06:34.867Z,13.00
2018-10-19T09:07:34.867Z,12.95
2018-10-19T09:09:27.817Z,12.97
2018-10-19T09:10:27.798Z,12.95
2018-10-19T09:12:20.740Z,12.96
2018-10-19T09:13:20.734Z,12.96
2018-10-19T09:15:13.719Z,12.83
2018-10-19T09:16:13.653Z,12.90
2018-10-19T09:18:06.559Z,13.01
2018-10-19T09:19:06.567Z,13.04
2018-10-19T09:20:59.473Z,13.12
2018-10-19T09:21:59.487Z,13.23
2018-10-19T09:23:52.394Z,13.36
2018-10-19T09:24:52.425Z,13.45
2018-10-19T09:26:45.320Z,13.55
2018-10-19T09:27:45.330Z,13.55
2018-10-19T09:29:38.304Z,13.60
2018-10-19T09:30:38.251Z,13.55
2018-10-19T09:32:31.156Z,13.52
2018-10-19T09:33:31.166Z,13.66
2018-10-19T09:35:24.099Z,13.78
2018-10-19T09:36:24.246Z,13.87
2018-10-19T09:38:17.000Z,14.07
2018-10-19T09:39:17.080Z,14.03
2018-10-19T09:41:09.914Z,14.02
2018-10-19T09:42:10.094Z,14.04
2018-10-19T09:44:02.843Z,14.10
2018-10-19T09:45:02.910Z,14.20
2018-10-19T09:46:55.812Z,14.22
2018-10-19T09:47:55.773Z,14.18
2018-10-19T09:49:48.689Z,14.14
2018-10-19T09:50:48.692Z,14.17
2018-10-19T09:52:41.603Z,13.99
2018-10-19T09:53:41.614Z,14.06
2018-10-19T09:55:34.562Z,14.18
2018-10-19T09:56:34.576Z,14.17
2018-10-19T09:58:27.491Z,14.36
2018-10-19T09:59:27.503Z,14.36
2018-10-19T10:01:20.414Z,14.37
2018-10-19T10:02:20.424Z,14.43
2018-10-19T10:04:13.345Z,14.36
2018-10-19T10:05:13.416Z,14.46
2018-10-19T10:07:06.343Z,14.39
2018-10-19T10:08:06.271Z,14.33
2018-10-19T10:09:59.177Z,14.40
2018-10-19T10:10:59.203Z,14.42
2018-10-19T10:12:52.137Z,14.40
2018-10-19T10:13:52.113Z,14.37
2018-10-19T10:15:45.050Z,14.50
2018-10-19T10:16:45.048Z,14.47
2018-10-19T10:18:37.957Z,14.52
2018-10-19T10:19:37.968Z,14.51
2018-10-19T10:21:30.865Z,14.55
2018-10-19T10:22:30.887Z,14.62
2018-10-19T10:24:23.801Z,14.72
2018-10-19T10:25:23.928Z,14.77
2018-10-19T10:27:16.722Z,14.81
2018-10-19T10:28:16.867Z,14.88
2018-10-19T10:30:09.840Z,14.92
2018-10-19T10:31:09.914Z,14.98
2018-10-19T10:33:02.823Z,14.98
2018-10-19T10:34:02.813Z,14.99
2018-10-19T10:35:55.670Z,15.11
2018-10-19T10:36:55.790Z,15.11
2018-10-19T10:38:48.662Z,15.09
2018-10-19T10:39:48.638Z,15.01
2018-10-19T10:41:41.524Z,14.95
2018-10-19T10:42:41.542Z,14.91
2018-10-19T10:44:35.450Z,15.09
2018-10-19T10:45:35.462Z,15.20
2018-10-19T10:47:28.374Z,15.31
2018-10-19T10:48:28.395Z,15.31
2018-10-19T10:50:21.322Z,15.39
2018-10-19T10:51:21.328Z,15.31
2018-10-19T10:53:14.248Z,15.29
2018-10-19T10:54:14.258Z,15.31
2018-10-19T10:56:07.159Z,15.39
2018-10-19T10:57:07.178Z,15.51
2018-10-19T10:59:00.235Z,15.59
2018-10-19T11:00:00.350Z,15.64
2018-10-19T11:01:53.011Z,15.57
2018-10-19T11:02:53.032Z,15.56
2018-10-19T11:04:47.003Z,15.60
2018-10-19T11:05:46.949Z,15.59
2018-10-19T11:07:40.065Z,15.57
2018-10-19T11:08:39.874Z,15.50
2018-10-19T11:10:32.794Z,15.39
2018-10-19T11:11:32.847Z,15.57
2018-10-19T11:13:25.919Z,15.59
2018-10-19T11:14:25.915Z,15.64
2018-10-19T11:16:18.826Z,15.54
2018-10-19T11:17:18.839Z,15.53
2018-10-19T11:19:11.860Z,15.59
2018-10-19T11:20:11.767Z,15.59
2018-10-19T11:22:04.704Z,15.56
2018-10-19T11:23:04.687Z,15.59
2018-10-19T11:24:57.621Z,15.67
2018-10-19T11:25:57.620Z,15.74
2018-10-19T11:27:50.522Z,15.78
2018-10-19T11:28:50.539Z,15.83
2018-10-19T11:30:43.550Z,15.84
2018-10-19T11:31:43.465Z,15.78
2018-10-19T11:33:36.372Z,15.94
2018-10-19T11:34:36.392Z,15.92
2018-10-19T11:36:29.307Z,16.00
2018-10-19T11:37:29.349Z,15.84
2018-10-19T11:39:22.230Z,15.97
2018-10-19T11:40:22.244Z,15.92
2018-10-19T11:42:15.164Z,15.96
2018-10-19T11:43:15.226Z,16.01
2018-10-19T11:45:08.087Z,15.94
2018-10-19T11:46:08.154Z,15.94
2018-10-19T11:48:01.006Z,15.82
2018-10-19T11:49:01.031Z,15.82
2018-10-19T11:50:53.934Z,15.89
2018-10-19T11:51:53.956Z,15.90
2018-10-19T11:53:46.848Z,16.02
2018-10-19T11:54:46.867Z,15.90
2018-10-19T11:56:39.784Z,15.84
2018-10-19T11:57:39.801Z,15.90
2018-10-19T11:59:32.722Z,15.92
2018-10-19T12:00:32.720Z,15.92
2018-10-19T12:02:25.631Z,15.74
2018-10-19T12:03:25.661Z,15.87
2018-10-19T12:05:18.565Z,15.90
2018-10-19T12:06:18.573Z,15.93
2018-10-19T12:08:11.539Z,16.01
2018-10-19T12:09:11.500Z,16.04
2018-10-19T12:11:04.418Z,16.15
2018-10-19T12:12:04.424Z,16.25
2018-10-19T12:13:57.331Z,16.34
2018-10-19T12:14:57.403Z,16.38
2018-10-19T12:16:50.456Z,16.56
2018-10-19T12:17:50.309Z,16.50
2018-10-19T12:19:43.215Z,16.63
2018-10-19T12:20:43.235Z,16.66
2018-10-19T12:22:36.148Z,16.79
2018-10-19T12:23:36.157Z,16.85
2018-10-19T12:25:30.098Z,16.88
2018-10-19T12:26:30.083Z,16.88
2018-10-19T12:28:23.989Z,16.76
2018-10-19T12:29:24.010Z,16.68
2018-10-19T12:31:16.973Z,16.82
2018-10-19T12:32:16.942Z,16.91
2018-10-19T12:34:09.848Z,16.88
2018-10-19T12:35:09.876Z,17.00
2018-10-19T12:37:02.820Z,17.06
2018-10-19T12:38:02.817Z,17.06
2018-10-19T12:39:55.730Z,16.89
2018-10-19T12:40:55.802Z,17.00
2018-10-19T12:42:48.698Z,17.12
2018-10-19T12:43:48.719Z,17.15
2018-10-19T12:45:41.596Z,17.08
2018-10-19T12:46:41.616Z,17.01
2018-10-19T12:48:34.533Z,17.11
2018-10-19T12:49:34.576Z,16.97
2018-10-19T12:51:27.464Z,17.00
2018-10-19T12:52:27.473Z,17.03
2018-10-19T12:54:20.396Z,17.04
2018-10-19T12:55:20.400Z,17.04
2018-10-19T12:57:13.407Z,17.06
2018-10-19T12:58:13.331Z,17.07
2018-10-19T13:00:06.241Z,17.00
2018-10-19T13:01:06.294Z,16.97
2018-10-19T13:02:59.182Z,17.00
2018-10-19T13:03:59.188Z,17.07
2018-10-19T13:05:52.096Z,17.00
2018-10-19T13:06:52.115Z,17.04
2018-10-19T13:08:45.052Z,17.07
2018-10-19T13:09:45.063Z,16.97
2018-10-19T13:11:37.983Z,16.85
2018-10-19T13:12:37.992Z,16.98
2018-10-19T13:14:30.900Z,17.06
2018-10-19T13:15:30.919Z,17.01
2018-10-19T13:17:23.867Z,17.01
2018-10-19T13:18:23.913Z,16.89
2018-10-19T13:20:16.758Z,17.00
2018-10-19T13:21:16.822Z,17.00
2018-10-19T13:23:09.777Z,17.00
2018-10-19T13:24:09.721Z,17.06
2018-10-19T13:26:02.625Z,17.08
2018-10-19T13:27:02.658Z,17.16
2018-10-19T13:28:55.586Z,17.22
2018-10-19T13:29:55.582Z,17.28
2018-10-19T13:31:48.588Z,17.15
2018-10-19T13:32:48.506Z,17.14
2018-10-19T13:34:41.411Z,17.21
2018-10-19T13:35:41.430Z,17.16
2018-10-19T13:37:34.370Z,17.19
2018-10-19T13:38:34.366Z,17.15
2018-10-19T13:40:27.300Z,17.15
2018-10-19T13:41:27.342Z,17.11
2018-10-19T13:43:20.229Z,17.08
2018-10-19T13:44:20.241Z,17.11
2018-10-19T13:46:13.167Z,17.14
2018-10-19T13:47:13.240Z,17.19
2018-10-19T13:49:06.109Z,17.15
2018-10-19T13:50:06.117Z,17.19
2018-10-19T13:51:59.029Z,17.22
2018-10-19T13:52:59.089Z,17.16
2018-10-19T13:54:51.964Z,17.19
2018-10-19T13:55:51.975Z,17.15
2018-10-19T13:57:44.904Z,17.15
2018-10-19T13:58:44.976Z,17.19
2018-10-19T14:00:38.098Z,17.16
2018-10-19T14:01:38.040Z,17.22
2018-10-19T14:03:30.955Z,17.14
2018-10-19T14:04:30.991Z,17.15
2018-10-19T14:06:23.877Z,17.22
2018-10-19T14:07:23.895Z,17.25
2018-10-19T14:09:16.955Z,17.15
2018-10-19T14:10:16.823Z,17.22
2018-10-19T14:12:09.732Z,17.18
2018-10-19T14:13:09.749Z,17.21
2018-10-19T14:15:02.673Z,17.12
2018-10-19T14:16:02.690Z,17.07
2018-10-19T14:17:56.586Z,17.14
2018-10-19T14:18:56.615Z,17.07
2018-10-19T14:20:49.525Z,16.98
2018-10-19T14:21:49.547Z,16.97
2018-10-19T14:23:42.451Z,17.04
2018-10-19T14:24:42.466Z,16.91
2018-10-19T14:26:35.429Z,16.86
2018-10-19T14:27:35.392Z,16.81
2018-10-19T14:29:28.312Z,16.88
2018-10-19T14:30:28.324Z,16.86
2018-10-19T14:32:22.230Z,16.85
2018-10-19T14:33:22.360Z,16.82
2018-10-19T14:35:15.319Z,16.78
2018-10-19T14:36:15.172Z,16.83
2018-10-19T14:38:08.123Z,16.67
2018-10-19T14:39:08.202Z,16.71
2018-10-19T14:41:01.073Z,16.56
2018-10-19T14:42:01.101Z,16.64
2018-10-19T14:43:53.972Z,16.53
2018-10-19T14:44:53.987Z,16.52
2018-10-19T14:46:46.893Z,16.57
2018-10-19T14:47:46.917Z,16.48
2018-10-19T14:49:39.854Z,16.41
2018-10-19T14:50:39.846Z,16.42
2018-10-19T14:52:32.760Z,16.35
2018-10-19T14:53:32.774Z,16.34
2018-10-19T14:55:25.690Z,16.28
2018-10-19T14:56:25.698Z,16.21
2018-10-19T14:58:18.611Z,16.24
2018-10-19T14:59:18.631Z,16.14
2018-10-19T15:01:11.548Z,16.07
2018-10-19T15:02:11.561Z,16.14
2018-10-19T15:04:04.505Z,16.08
2018-10-19T15:05:04.506Z,16.14
2018-10-19T15:06:57.399Z,16.27
2018-10-19T15:07:57.411Z,16.17
2018-10-19T15:09:50.640Z,16.17
2018-10-19T15:10:50.494Z,16.21
2018-10-19T15:12:43.248Z,16.21
2018-10-19T15:13:43.263Z,16.14
2018-10-19T15:15:36.181Z,16.09
2018-10-19T15:16:36.226Z,16.12
2018-10-19T15:18:29.109Z,16.07
2018-10-19T15:19:29.116Z,16.14
2018-10-19T15:21:22.169Z,16.07
2018-10-19T15:22:22.159Z,15.97
2018-10-19T15:24:15.119Z,15.92
2018-10-19T15:25:15.084Z,15.93
2018-10-19T15:27:08.097Z,15.78
2018-10-19T15:28:08.024Z,15.86
2018-10-19T15:30:00.940Z,15.67
2018-10-19T15:31:00.952Z,15.78
2018-10-19T15:32:53.917Z,15.56
2018-10-19T15:33:53.882Z,15.60
2018-10-19T15:35:46.796Z,15.67
2018-10-19T15:36:46.804Z,15.62
2018-10-19T15:38:39.945Z,15.60
2018-10-19T15:39:39.952Z,15.62
2018-10-19T15:41:32.859Z,15.59
2018-10-19T15:42:32.871Z,15.53
2018-10-19T15:44:25.780Z,15.57
2018-10-19T15:45:25.798Z,15.56
2018-10-19T15:47:18.732Z,15.59
2018-10-19T15:48:18.731Z,15.62
2018-10-19T15:50:12.002Z,15.56
2018-10-19T15:51:12.032Z,15.62
2018-10-19T15:53:04.966Z,15.57
2018-10-19T15:54:04.984Z,15.51
2018-10-19T15:55:57.912Z,15.47
2018-10-19T15:56:58.021Z,15.39
2018-10-19T15:58:50.872Z,15.43
2018-10-19T15:59:50.890Z,15.43
2018-10-19T16:01:43.828Z,15.39
2018-10-19T16:02:43.843Z,15.35
2018-10-19T16:04:36.784Z,15.39
2018-10-19T16:05:36.792Z,15.46
2018-10-19T16:07:29.735Z,15.38
2018-10-19T16:08:29.751Z,15.43
2018-10-19T16:10:22.740Z,15.31
2018-10-19T16:11:22.701Z,15.41
2018-10-19T16:13:15.646Z,15.35
2018-10-19T16:14:15.656Z,15.38
2018-10-19T16:16:08.693Z,15.35
2018-10-19T16:17:08.712Z,15.41
2018-10-19T16:19:01.654Z,15.38
2018-10-19T16:20:01.668Z,15.38
2018-10-19T16:21:54.608Z,15.51
2018-10-19T16:22:54.620Z,15.39
2018-10-19T16:24:47.591Z,15.38
2018-10-19T16:25:47.601Z,15.49
2018-10-19T16:27:41.058Z,15.36
2018-10-19T16:28:41.038Z,15.38
2018-10-19T16:30:33.980Z,15.39
2018-10-19T16:31:33.997Z,15.39
2018-10-19T16:33:27.456Z,15.36
2018-10-19T16:34:27.469Z,15.43
2018-10-19T16:36:21.424Z,15.35
2018-10-19T16:37:21.439Z,15.34
2018-10-19T16:39:14.989Z,15.38
2018-10-19T16:40:14.908Z,15.38
2018-10-19T16:42:07.901Z,15.35
2018-10-19T16:43:07.868Z,15.34
2018-10-19T16:45:00.854Z,15.19
2018-10-19T16:46:00.825Z,15.20
2018-10-19T16:47:53.756Z,15.31
2018-10-19T16:48:53.766Z,15.23
2018-10-19T16:50:48.240Z,15.23
2018-10-19T16:51:48.259Z,15.27
2018-10-19T16:53:41.261Z,15.25
2018-10-19T16:54:41.216Z,15.25
2018-10-19T16:56:34.159Z,15.14
2018-10-19T16:57:34.212Z,15.20
2018-10-19T16:59:27.655Z,15.17
2018-10-19T17:00:27.637Z,15.11
2018-10-19T17:02:20.577Z,15.16
2018-10-19T17:03:20.639Z,15.09
2018-10-19T17:05:13.540Z,15.09
2018-10-19T17:06:13.596Z,14.99
2018-10-19T17:08:06.577Z,14.98
2018-10-19T17:09:06.549Z,14.88
2018-10-19T17:10:59.557Z,14.78
2018-10-19T17:11:59.576Z,14.64
2018-10-19T17:13:52.500Z,14.62
2018-10-19T17:14:52.509Z,14.62
2018-10-19T17:16:45.554Z,14.51
2018-10-19T17:17:45.568Z,14.54
2018-10-19T17:19:38.507Z,14.57
2018-10-19T17:20:38.519Z,14.42
2018-10-19T17:22:31.567Z,14.39
2018-10-19T17:23:31.584Z,14.42
2018-10-19T17:25:24.555Z,14.42
2018-10-19T17:26:24.532Z,14.35
2018-10-19T17:28:17.592Z,14.42
2018-10-19T17:29:17.710Z,14.32
2018-10-19T17:31:11.286Z,14.27
2018-10-19T17:32:11.152Z,14.27
2018-10-19T17:34:04.361Z,14.21
2018-10-19T17:35:04.419Z,14.17
2018-10-19T17:36:57.377Z,14.14
2018-10-19T17:37:57.366Z,14.10
2018-10-19T17:39:50.309Z,14.04
2018-10-19T17:40:50.321Z,14.06
2018-10-19T17:42:43.260Z,14.04
2018-10-19T17:43:43.277Z,14.02
2018-10-19T17:45:36.215Z,14.00
2018-10-19T17:46:36.236Z,14.04
2018-10-19T17:48:29.167Z,13.92
2018-10-19T17:49:29.180Z,13.89
2018-10-19T17:51:22.123Z,13.92
2018-10-19T17:52:22.135Z,13.92
2018-10-19T17:54:15.156Z,13.87
2018-10-19T17:55:15.092Z,13.88
2018-10-19T17:57:08.087Z,13.79
2018-10-19T17:58:08.043Z,13.78
2018-10-19T18:00:01.080Z,13.75
2018-10-19T18:01:00.997Z,13.73
2018-10-19T18:02:53.944Z,13.70
2018-10-19T18:03:53.959Z,13.62
2018-10-19T18:05:46.894Z,13.66
2018-10-19T18:06:46.906Z,13.62
2018-10-19T18:08:39.840Z,13.57
2018-10-19T18:09:39.874Z,13.48
2018-10-19T18:11:33.390Z,13.49
2018-10-19T18:12:33.325Z,13.51
2018-10-19T18:14:26.260Z,13.44
2018-10-19T18:15:26.307Z,13.38
2018-10-19T18:17:19.233Z,13.38
2018-10-19T18:18:19.240Z,13.29
2018-10-19T18:20:12.680Z,13.36
2018-10-19T18:21:12.799Z,13.19
2018-10-19T18:23:05.744Z,13.17
2018-10-19T18:24:05.655Z,13.14
2018-10-19T18:25:59.122Z,13.08
2018-10-19T18:26:59.154Z,13.05
2018-10-19T18:28:52.060Z,13.00
2018-10-19T18:29:52.073Z,12.93
2018-10-19T18:31:45.013Z,12.92
2018-10-19T18:32:45.031Z,12.87
2018-10-19T18:34:38.056Z,12.82
2018-10-19T18:35:37.987Z,12.79
2018-10-19T18:37:30.926Z,12.75
2018-10-19T18:38:30.936Z,12.70
2018-10-19T18:40:23.870Z,12.65
2018-10-19T18:41:23.916Z,12.70
2018-10-19T18:43:16.843Z,12.70